Terminal Aerodrome Forecast
Issued by NWS State College, PA

Home | Current Version | Previous Version | Text Only | Print | Product List | Glossary On
Versions: 1 2 3 4 5 6 7 8 9 10 11 12 13 14 15 16 17 18 19 20 21 22 23 24 25 26 27 28 29 30 31 32 33
000
FTUS41 KCTP 282334
TAFIPT
TAF
KIPT 282334Z 2900/2924 VRB03KT P6SM VCSH OVC060
     FM290400 00000KT 4SM -SHRA BR OVC050
     FM291500 32008KT P6SM BKN150=

USA.gov is the U.S. government's official web portal to all federal, state and local government web resources and services.